Time;durP1;ratioP1;P1;durP2;ratioP2;P2;SDS_P1;SDS_P2;PMS_P1;PMS_P2;Temp;Humidity;BMP_temperature;BMP_pressure;BME280_temperature;BME280_humidity;BME280_pressure;Samples;Min_cycle;Max_cycle;Signal;HPM_P1;HPM_P2
2021/03/03 00:01:49;;;;;;;23.42;14.32;;;7.80;89.40;;;;;;5065054;28;20040;-40
2021/03/03 00:04:15;;;;;;;23.35;14.68;;;7.80;89.50;;;;;;5064836;28;20039;-42
2021/03/03 00:06:40;;;;;;;24.98;15.82;;;7.70;89.60;;;;;;5065021;28;20387;-40
2021/03/03 00:09:06;;;;;;;23.15;14.95;;;7.70;89.60;;;;;;5064937;28;20471;-42
2021/03/03 00:11:31;;;;;;;24.27;15.15;;;7.60;89.60;;;;;;5064742;28;20040;-38
2021/03/03 00:13:57;;;;;;;25.35;15.73;;;7.60;89.70;;;;;;5064589;28;20028;-39
2021/03/03 00:16:22;;;;;;;25.08;15.38;;;7.50;89.80;;;;;;5065215;28;20124;-40
2021/03/03 00:18:48;;;;;;;24.80;13.70;;;7.50;89.90;;;;;;5064737;28;20027;-36
2021/03/03 00:21:14;;;;;;;22.00;13.25;;;7.50;90.00;;;;;;5064718;28;20424;-40
2021/03/03 00:23:40;;;;;;;25.08;14.35;;;7.40;90.20;;;;;;5065079;28;20056;-41
2021/03/03 00:26:05;;;;;;;25.45;14.13;;;7.40;90.00;;;;;;5062279;28;20024;-39
2021/03/03 00:28:31;;;;;;;24.42;14.55;;;7.40;90.00;;;;;;5062784;28;20024;-37
2021/03/03 00:30:56;;;;;;;21.08;12.98;;;7.40;90.00;;;;;;5065006;28;20365;-39
2021/03/03 00:33:22;;;;;;;22.73;13.88;;;7.40;90.10;;;;;;5064659;28;20059;-39
2021/03/03 00:35:47;;;;;;;20.70;13.88;;;7.30;90.10;;;;;;5063856;28;20977;-39
2021/03/03 00:38:13;;;;;;;21.67;13.77;;;7.30;90.10;;;;;;5064950;28;20029;-39
2021/03/03 00:40:38;;;;;;;24.05;13.90;;;7.40;90.10;;;;;;5064784;28;20028;-39
2021/03/03 00:43:04;;;;;;;21.88;13.32;;;7.30;90.10;;;;;;5064368;28;20509;-39
2021/03/03 00:45:36;;;;;;;25.50;14.60;;;7.30;90.10;;;;;;5064501;28;20017;-39
2021/03/03 00:48:01;;;;;;;24.10;14.27;;;7.30;90.10;;;;;;5065371;28;20547;-39
2021/03/03 00:50:27;;;;;;;21.85;13.55;;;7.30;90.20;;;;;;5064028;28;20025;-39
2021/03/03 00:52:52;;;;;;;27.02;15.07;;;7.20;90.10;;;;;;5064481;28;20057;-39
2021/03/03 00:55:18;;;;;;;24.33;13.60;;;7.20;90.10;;;;;;5064469;28;20036;-40
2021/03/03 00:57:43;;;;;;;22.17;12.90;;;7.20;90.20;;;;;;5064086;28;20054;-39
2021/03/03 01:00:10;;;;;;;22.92;13.10;;;7.20;90.20;;;;;;5067840;28;20016;-38
2021/03/03 01:02:35;;;;;;;21.77;14.48;;;7.10;90.20;;;;;;5068581;28;20039;-40
2021/03/03 01:05:01;;;;;;;21.70;13.60;;;7.10;90.30;;;;;;5068064;28;20024;-39
2021/03/03 01:07:26;;;;;;;23.67;14.57;;;7.10;90.30;;;;;;5068512;28;20032;-40
2021/03/03 01:09:52;;;;;;;22.05;14.27;;;7.10;90.40;;;;;;5067865;28;20028;-39
2021/03/03 01:12:18;;;;;;;22.65;14.30;;;7.00;90.40;;;;;;5068009;28;20021;-39
2021/03/03 01:14:46;;;;;;;24.38;14.23;;;7.00;90.40;;;;;;5068377;28;20040;-39
2021/03/03 01:17:12;;;;;;;23.17;14.43;;;6.90;90.40;;;;;;5068006;28;20025;-39
2021/03/03 01:19:38;;;;;;;23.55;14.30;;;6.90;90.50;;;;;;5068081;28;20028;-39
2021/03/03 01:22:03;;;;;;;23.10;13.85;;;6.90;90.60;;;;;;5068231;28;20448;-39
2021/03/03 01:24:29;;;;;;;22.40;13.88;;;6.80;90.60;;;;;;5067911;28;20029;-39
2021/03/03 01:26:55;;;;;;;20.88;13.77;;;6.80;90.60;;;;;;5068156;28;20078;-38
2021/03/03 01:29:20;;;;;;;22.35;14.05;;;6.80;90.60;;;;;;5068079;28;20028;-39
2021/03/03 01:31:46;;;;;;;26.88;14.32;;;6.70;90.60;;;;;;5067002;28;20093;-39
2021/03/03 01:34:11;;;;;;;22.35;14.10;;;6.70;90.70;;;;;;5067621;28;20024;-39
2021/03/03 01:36:37;;;;;;;20.65;13.57;;;6.70;90.70;;;;;;5067954;28;20039;-39
2021/03/03 01:39:04;;;;;;;20.90;13.48;;;6.60;90.70;;;;;;5067302;28;20363;-40
2021/03/03 01:41:32;;;;;;;20.95;13.07;;;6.60;90.70;;;;;;5067422;28;20417;-39
2021/03/03 01:43:57;;;;;;;22.88;12.90;;;6.60;90.70;;;;;;5067570;28;20448;-39
2021/03/03 01:46:23;;;;;;;20.67;14.35;;;6.50;90.80;;;;;;5067226;28;20032;-38
2021/03/03 01:48:49;;;;;;;21.25;14.05;;;6.50;90.90;;;;;;5067629;28;20116;-39
2021/03/03 01:51:15;;;;;;;24.25;14.15;;;6.50;90.90;;;;;;5067486;28;20155;-39
2021/03/03 01:53:42;;;;;;;25.48;14.35;;;6.50;90.90;;;;;;5066989;28;20046;-40
2021/03/03 01:56:08;;;;;;;20.20;13.50;;;6.50;90.90;;;;;;5067489;28;20056;-38
2021/03/03 01:58:34;;;;;;;24.30;14.65;;;6.50;90.90;;;;;;5066828;28;20425;-40
2021/03/03 02:00:59;;;;;;;23.85;13.93;;;6.50;90.90;;;;;;5067297;28;20044;-39
2021/03/03 02:03:25;;;;;;;24.38;15.02;;;6.50;90.90;;;;;;5066856;28;20444;-40
2021/03/03 02:05:54;;;;;;;21.77;13.02;;;6.50;91.00;;;;;;5067020;28;20024;-40
2021/03/03 02:08:29;;;;;;;22.85;14.45;;;6.40;91.00;;;;;;5066358;28;20501;-39
2021/03/03 02:10:55;;;;;;;24.90;14.48;;;6.40;91.00;;;;;;5067013;28;20087;-38
2021/03/03 02:13:28;;;;;;;28.45;14.85;;;6.40;91.10;;;;;;5066114;28;20032;-39
2021/03/03 02:15:56;;;;;;;26.38;14.60;;;6.40;91.10;;;;;;5066993;28;20029;-37
2021/03/03 02:18:23;;;;;;;26.67;15.05;;;6.30;91.10;;;;;;5066787;28;20050;-39
2021/03/03 02:21:11;;;;;;;27.45;13.95;;;6.30;91.20;;;;;;5066614;28;20044;-39
2021/03/03 02:23:49;;;;;;;26.63;14.90;;;6.30;91.20;;;;;;5066817;28;20059;-39
2021/03/03 02:26:20;;;;;;;22.15;13.77;;;6.20;91.20;;;;;;5066678;28;20059;-40
2021/03/03 02:28:46;;;;;;;22.13;13.38;;;6.20;91.20;;;;;;5066502;28;20036;-41
2021/03/03 02:31:14;;;;;;;24.15;14.20;;;6.20;91.30;;;;;;5066383;28;20115;-39
2021/03/03 02:33:42;;;;;;;20.02;13.23;;;6.20;91.30;;;;;;5066658;28;20440;-39
2021/03/03 02:36:09;;;;;;;22.80;13.40;;;6.10;91.30;;;;;;5066188;28;20195;-38
2021/03/03 02:38:35;;;;;;;20.80;13.02;;;6.10;91.40;;;;;;5066206;28;20487;-40
2021/03/03 02:41:02;;;;;;;21.20;12.57;;;6.10;91.40;;;;;;5067161;28;20131;-38
2021/03/03 02:43:28;;;;;;;20.70;12.73;;;6.10;91.40;;;;;;5066428;28;20013;-39
2021/03/03 02:45:54;;;;;;;20.00;13.85;;;6.10;91.50;;;;;;5066619;28;20020;-39
2021/03/03 02:48:20;;;;;;;22.90;14.32;;;6.10;91.50;;;;;;5065876;28;20068;-40
2021/03/03 02:50:45;;;;;;;22.85;14.10;;;6.00;91.50;;;;;;5066088;28;20048;-39
2021/03/03 02:53:13;;;;;;;27.35;14.70;;;6.00;91.60;;;;;;5066109;28;20143;-38
2021/03/03 02:55:39;;;;;;;24.08;14.88;;;6.00;91.60;;;;;;5065791;28;20029;-40
2021/03/03 02:58:05;;;;;;;22.25;13.90;;;6.00;91.70;;;;;;5066131;28;20043;-38
2021/03/03 03:00:42;;;;;;;21.45;13.52;;;5.90;91.70;;;;;;5065787;28;20028;-41
2021/03/03 03:03:19;;;;;;;21.70;13.75;;;5.90;91.70;;;;;;5045590;28;20404;-39
2021/03/03 03:05:48;;;;;;;21.90;12.80;;;5.80;92.00;;;;;;5063113;28;20039;-39
2021/03/03 03:08:21;;;;;;;21.98;13.75;;;5.80;91.70;;;;;;5065942;28;20078;-40
2021/03/03 03:10:47;;;;;;;20.90;13.25;;;5.80;91.80;;;;;;5065113;28;20036;-40
2021/03/03 03:13:16;;;;;;;20.65;12.88;;;5.80;91.80;;;;;;5065428;28;20339;-42
2021/03/03 03:15:47;;;;;;;19.13;12.77;;;5.80;91.80;;;;;;5065887;28;20452;-38
2021/03/03 03:18:19;;;;;;;20.70;13.38;;;5.70;91.80;;;;;;5065362;28;20035;-39
2021/03/03 03:20:47;;;;;;;22.07;12.93;;;5.70;91.90;;;;;;5065259;28;20055;-40
2021/03/03 03:23:21;;;;;;;19.95;12.77;;;5.70;91.90;;;;;;5065294;28;20036;-39
2021/03/03 03:25:47;;;;;;;22.08;13.35;;;5.60;91.90;;;;;;5065341;28;20306;-37
2021/03/03 03:28:13;;;;;;;22.45;13.65;;;5.60;91.90;;;;;;5065512;28;20031;-39
2021/03/03 03:30:40;;;;;;;19.45;12.68;;;5.60;92.00;;;;;;5065126;28;20032;-37
2021/03/03 03:33:06;;;;;;;21.02;13.95;;;5.60;92.00;;;;;;5065330;28;20066;-38
2021/03/03 03:35:32;;;;;;;24.38;13.82;;;5.60;92.00;;;;;;5065671;28;20107;-37
2021/03/03 03:37:59;;;;;;;23.77;14.60;;;5.60;92.10;;;;;;5065543;28;20361;-36
2021/03/03 03:40:25;;;;;;;25.00;13.88;;;5.50;92.10;;;;;;5065395;28;21191;-39
2021/03/03 03:42:55;;;;;;;23.27;12.88;;;5.50;92.10;;;;;;5065507;28;20031;-36
2021/03/03 03:45:26;;;;;;;23.92;14.10;;;5.60;92.10;;;;;;5065277;28;20017;-38
2021/03/03 03:47:53;;;;;;;23.48;13.25;;;5.50;92.10;;;;;;5065590;28;20078;-39
2021/03/03 03:50:20;;;;;;;23.55;13.48;;;5.50;92.20;;;;;;5065206;28;20031;-39
2021/03/03 03:52:57;;;;;;;20.80;13.82;;;5.50;92.20;;;;;;5064781;28;20106;-39
2021/03/03 03:55:36;;;;;;;23.38;13.82;;;5.50;92.20;;;;;;5065716;28;20698;-38
2021/03/03 03:58:02;;;;;;;22.80;13.60;;;5.40;92.50;;;;;;5061309;28;20028;-38
2021/03/03 04:00:29;;;;;;;20.95;13.75;;;5.40;92.20;;;;;;5065363;28;20123;-39
2021/03/03 04:02:55;;;;;;;22.70;13.65;;;5.40;92.30;;;;;;5065336;28;20051;-40
2021/03/03 04:05:21;;;;;;;21.95;13.38;;;5.40;92.30;;;;;;5065104;28;20043;-44
2021/03/03 04:07:46;;;;;;;24.48;13.93;;;5.40;92.30;;;;;;5064790;28;20040;-41
2021/03/03 04:10:18;;;;;;;22.67;14.88;;;5.40;92.40;;;;;;5065126;28;20333;-39
2021/03/03 04:12:43;;;;;;;22.40;13.85;;;5.30;92.40;;;;;;5064344;28;20059;-38
2021/03/03 04:15:11;;;;;;;24.67;15.02;;;5.30;92.40;;;;;;5065081;28;20103;-39
2021/03/03 04:17:38;;;;;;;24.92;14.02;;;5.30;92.40;;;;;;5064665;28;20036;-39
2021/03/03 04:20:05;;;;;;;23.30;13.73;;;5.30;92.50;;;;;;5064395;28;20103;-39
2021/03/03 04:22:31;;;;;;;23.42;14.63;;;5.20;92.50;;;;;;5064660;28;20024;-43
2021/03/03 04:24:57;;;;;;;23.77;14.30;;;5.20;92.50;;;;;;5065141;28;20020;-37
2021/03/03 04:27:23;;;;;;;23.15;14.50;;;5.20;92.60;;;;;;5063891;28;20036;-39
2021/03/03 04:29:48;;;;;;;26.00;16.38;;;5.20;92.60;;;;;;5065187;28;20020;-40
2021/03/03 04:32:14;;;;;;;22.55;14.88;;;5.30;92.70;;;;;;5064730;28;20064;-37
2021/03/03 04:34:39;;;;;;;24.00;15.75;;;5.30;92.60;;;;;;5067077;28;20464;-43
2021/03/03 04:37:05;;;;;;;22.45;14.38;;;5.30;92.60;;;;;;5069239;28;20048;-39
2021/03/03 04:39:30;;;;;;;27.00;14.95;;;5.30;92.60;;;;;;5068703;28;20021;-39
2021/03/03 04:41:56;;;;;;;23.08;14.65;;;5.30;92.60;;;;;;5068889;28;20068;-40
2021/03/03 04:44:21;;;;;;;22.92;14.75;;;5.30;92.70;;;;;;5068361;28;20039;-40
2021/03/03 04:46:47;;;;;;;25.05;15.07;;;5.30;92.70;;;;;;5069321;28;20043;-39
2021/03/03 04:49:12;;;;;;;21.83;13.50;;;5.30;92.70;;;;;;5067776;28;20105;-40
2021/03/03 04:51:38;;;;;;;27.38;15.35;;;5.30;92.70;;;;;;5068323;28;20488;-39
2021/03/03 04:54:04;;;;;;;22.50;15.13;;;5.30;92.70;;;;;;5068377;28;20174;-37
2021/03/03 04:56:32;;;;;;;29.42;16.13;;;5.30;92.80;;;;;;5068031;28;20032;-40
2021/03/03 04:58:58;;;;;;;26.77;15.13;;;5.30;92.80;;;;;;5068452;28;20027;-39
2021/03/03 05:01:23;;;;;;;24.55;15.45;;;5.30;92.90;;;;;;5068872;28;20112;-38
2021/03/03 05:03:49;;;;;;;23.42;15.63;;;5.30;92.80;;;;;;5067790;28;20472;-40
2021/03/03 05:06:14;;;;;;;24.30;15.15;;;5.30;92.90;;;;;;5068516;28;20025;-38
2021/03/03 05:08:41;;;;;;;27.30;15.25;;;5.30;92.80;;;;;;5068800;28;20032;-39
2021/03/03 05:11:06;;;;;;;23.77;14.65;;;5.30;92.90;;;;;;5068360;28;20089;-36
2021/03/03 05:13:32;;;;;;;22.98;13.55;;;5.30;92.90;;;;;;5068293;28;20028;-39
2021/03/03 05:15:58;;;;;;;20.77;13.80;;;5.20;92.90;;;;;;5069131;28;20024;-40
2021/03/03 05:18:24;;;;;;;21.88;13.88;;;5.20;92.90;;;;;;5068467;28;20099;-39
2021/03/03 05:20:50;;;;;;;22.85;14.23;;;5.20;92.90;;;;;;5068162;28;20036;-40
2021/03/03 05:23:33;;;;;;;22.00;12.70;;;5.30;93.00;;;;;;5067806;28;20442;-40
2021/03/03 05:26:00;;;;;;;22.90;13.68;;;5.30;93.00;;;;;;5068416;28;20157;-41
2021/03/03 05:28:26;;;;;;;21.42;13.50;;;5.30;93.00;;;;;;5068387;28;20048;-39
2021/03/03 05:30:52;;;;;;;22.00;12.98;;;5.30;93.00;;;;;;5067602;28;20071;-38
2021/03/03 05:33:43;;;;;;;21.85;13.15;;;5.30;92.90;;;;;;5067918;28;20056;-38
2021/03/03 05:36:10;;;;;;;20.90;12.85;;;5.30;92.90;;;;;;5065685;28;20135;-39
2021/03/03 05:38:36;;;;;;;22.05;13.50;;;5.30;92.90;;;;;;5067385;28;20369;-38
2021/03/03 05:41:09;;;;;;;20.45;13.70;;;5.30;92.90;;;;;;5067745;28;20111;-39
2021/03/03 05:43:36;;;;;;;24.58;14.30;;;5.30;93.00;;;;;;5067496;28;20020;-39
2021/03/03 05:46:03;;;;;;;21.17;13.43;;;5.20;92.90;;;;;;5066273;28;20502;-39
2021/03/03 05:48:37;;;;;;;25.55;14.60;;;5.20;92.90;;;;;;5046052;28;20025;-38
2021/03/03 05:51:06;;;;;;;20.15;12.70;;;5.20;93.00;;;;;;5061887;28;20033;-37
2021/03/03 05:53:32;;;;;;;25.15;13.15;;;5.20;93.00;;;;;;5067127;28;20029;-37
2021/03/03 05:55:59;;;;;;;22.58;11.90;;;5.10;93.00;;;;;;5066849;28;20369;-38
2021/03/03 05:58:29;;;;;;;20.67;13.13;;;5.10;93.10;;;;;;5066985;28;20036;-40
2021/03/03 06:00:59;;;;;;;21.33;12.80;;;5.00;93.10;;;;;;5066998;28;20099;-38
2021/03/03 06:03:28;;;;;;;22.10;13.82;;;5.00;93.10;;;;;;5067063;28;20051;-40
2021/03/03 06:05:54;;;;;;;22.27;12.95;;;5.00;93.10;;;;;;5066607;28;20024;-40
2021/03/03 06:08:25;;;;;;;21.27;14.05;;;5.00;93.20;;;;;;5066906;28;20133;-39
2021/03/03 06:10:51;;;;;;;21.35;12.95;;;5.00;93.20;;;;;;5066699;28;20032;-37
2021/03/03 06:13:17;;;;;;;22.63;14.38;;;5.00;93.20;;;;;;5066194;28;20123;-40
2021/03/03 06:15:43;;;;;;;22.63;14.20;;;4.90;93.30;;;;;;5066777;28;20028;-39
2021/03/03 06:18:11;;;;;;;20.25;13.13;;;5.00;93.30;;;;;;5055891;28;20119;-38
2021/03/03 06:20:38;;;;;;;22.25;13.85;;;5.00;93.30;;;;;;5066504;28;20098;-37
2021/03/03 06:23:24;;;;;;;25.42;14.38;;;5.00;93.30;;;;;;5066625;28;20036;-39
2021/03/03 06:26:11;;;;;;;23.77;13.98;;;5.00;93.30;;;;;;5066488;28;20448;-38
2021/03/03 06:28:42;;;;;;;23.17;14.73;;;5.00;93.30;;;;;;5056595;28;20031;-40
2021/03/03 06:31:26;;;;;;;24.98;13.50;;;5.00;93.30;;;;;;5066666;28;20049;-40
2021/03/03 06:34:06;;;;;;;18.45;13.07;;;5.00;93.30;;;;;;5056518;28;20036;-39
2021/03/03 06:36:31;;;;;;;20.50;12.50;;;5.00;93.30;;;;;;5066420;28;20020;-40
2021/03/03 06:39:13;;;;;;;20.23;13.70;;;5.00;93.30;;;;;;5066687;28;20431;-37
2021/03/03 06:41:38;;;;;;;20.85;13.18;;;5.10;93.30;;;;;;5065869;28;20021;-38
2021/03/03 06:44:04;;;;;;;20.02;13.73;;;5.10;93.30;;;;;;5066808;28;20028;-38
2021/03/03 06:46:30;;;;;;;20.58;13.77;;;5.10;93.30;;;;;;5065906;28;20143;-39
2021/03/03 06:48:55;;;;;;;20.70;13.48;;;5.10;93.30;;;;;;5065809;28;20125;-39
2021/03/03 06:51:30;;;;;;;21.50;13.85;;;5.10;93.30;;;;;;5066581;28;20048;-39
2021/03/03 06:53:58;;;;;;;19.17;13.38;;;5.20;93.30;;;;;;5062684;28;20040;-38
2021/03/03 06:56:37;;;;;;;21.98;13.82;;;5.20;93.30;;;;;;5062509;28;20468;-37
2021/03/03 06:59:19;;;;;;;24.17;13.90;;;5.20;93.30;;;;;;5063718;28;20127;-39
2021/03/03 07:01:52;;;;;;;22.65;14.15;;;5.20;93.30;;;;;;5059157;28;20036;-40
2021/03/03 07:04:32;;;;;;;20.63;14.15;;;5.30;93.30;;;;;;5063023;28;20047;-39
2021/03/03 07:07:02;;;;;;;21.08;14.07;;;5.30;93.30;;;;;;5055390;28;20038;-35
2021/03/03 07:09:58;;;;;;;24.92;14.70;;;5.40;93.30;;;;;;5061278;28;20020;-39
2021/03/03 07:12:32;;;;;;;26.85;15.57;;;5.40;93.30;;;;;;5063917;28;20029;-36
2021/03/03 07:15:09;;;;;;;23.92;14.43;;;5.50;93.20;;;;;;5065235;28;20044;-40
2021/03/03 07:17:44;;;;;;;26.73;15.27;;;5.50;93.20;;;;;;5064782;28;20028;-40
2021/03/03 07:20:09;;;;;;;27.80;16.08;;;5.60;93.20;;;;;;5065421;28;20028;-38
2021/03/03 07:22:38;;;;;;;26.60;15.43;;;5.70;93.10;;;;;;5065330;28;20399;-38
2021/03/03 07:25:12;;;;;;;23.88;15.77;;;5.80;93.10;;;;;;5065655;28;20479;-41
2021/03/03 07:27:40;;;;;;;26.45;17.45;;;5.90;93.10;;;;;;5065902;28;20078;-43
2021/03/03 07:30:11;;;;;;;28.38;15.43;;;6.00;93.00;;;;;;5065379;28;20033;-40
2021/03/03 07:32:37;;;;;;;25.48;15.60;;;6.10;93.00;;;;;;5065675;28;20040;-39
2021/03/03 07:35:05;;;;;;;23.38;15.60;;;6.20;93.00;;;;;;5064631;28;20100;-41
2021/03/03 07:37:35;;;;;;;28.27;17.20;;;6.30;92.90;;;;;;5065425;28;20123;-40
2021/03/03 07:40:05;;;;;;;26.55;16.55;;;6.30;92.80;;;;;;5065168;28;20750;-37
2021/03/03 07:42:32;;;;;;;27.85;17.35;;;6.50;92.80;;;;;;5065470;28;20423;-38
2021/03/03 07:45:00;;;;;;;27.00;16.25;;;6.50;92.80;;;;;;5064744;28;20024;-42
2021/03/03 07:47:28;;;;;;;25.83;16.33;;;6.60;92.70;;;;;;5064507;28;20036;-39
2021/03/03 07:50:19;;;;;;;25.48;16.27;;;6.70;92.70;;;;;;5064806;28;20028;-39
2021/03/03 07:52:47;;;;;;;25.58;15.48;;;6.80;92.70;;;;;;5044184;28;20507;-39
2021/03/03 07:55:14;;;;;;;28.17;18.35;;;6.80;92.60;;;;;;5059874;28;20024;-39
2021/03/03 07:57:44;;;;;;;27.73;17.30;;;6.90;92.60;;;;;;5065243;28;20039;-39
2021/03/03 08:00:19;;;;;;;25.05;16.27;;;7.00;92.60;;;;;;5064604;28;20173;-40
2021/03/03 08:02:49;;;;;;;22.00;15.25;;;7.10;92.60;;;;;;5064521;28;20492;-39
2021/03/03 08:05:39;;;;;;;29.15;16.77;;;7.10;92.50;;;;;;5063365;28;20111;-36
2021/03/03 08:08:13;;;;;;;27.02;17.05;;;7.20;92.50;;;;;;5063767;28;20024;-37
2021/03/03 08:10:41;;;;;;;28.20;17.08;;;7.20;92.40;;;;;;5062350;28;20041;-39
2021/03/03 08:13:11;;;;;;;27.33;17.55;;;7.30;92.40;;;;;;5064437;28;20587;-37
2021/03/03 08:15:44;;;;;;;29.85;17.65;;;7.40;92.40;;;;;;5064136;28;20032;-37
2021/03/03 08:18:21;;;;;;;29.33;18.35;;;7.50;92.40;;;;;;5061494;28;20020;-38
2021/03/03 08:20:51;;;;;;;31.15;19.75;;;7.60;92.40;;;;;;5064134;28;20032;-38
2021/03/03 08:23:32;;;;;;;28.33;18.40;;;7.70;92.30;;;;;;5064387;28;20467;-37
2021/03/03 08:26:11;;;;;;;28.38;19.05;;;7.80;92.30;;;;;;5063701;28;20486;-39
2021/03/03 08:28:51;;;;;;;28.00;18.05;;;7.80;92.20;;;;;;5063946;28;20079;-39
2021/03/03 08:31:21;;;;;;;30.10;19.73;;;7.90;92.20;;;;;;5062992;28;20043;-41
2021/03/03 08:33:49;;;;;;;33.50;19.92;;;8.00;92.20;;;;;;5062458;28;20144;-40
2021/03/03 08:36:18;;;;;;;28.90;19.33;;;8.00;92.20;;;;;;5064384;28;20023;-40
2021/03/03 08:38:45;;;;;;;32.28;20.17;;;8.10;92.10;;;;;;5062812;28;20496;-40
2021/03/03 08:41:14;;;;;;;31.60;19.73;;;8.20;92.10;;;;;;5063549;28;20459;-37
2021/03/03 08:43:47;;;;;;;30.40;21.02;;;8.20;92.00;;;;;;5064770;28;20025;-36
2021/03/03 08:46:42;;;;;;;31.90;20.23;;;8.20;92.00;;;;;;5064177;28;20025;-39
2021/03/03 08:49:07;;;;;;;33.95;21.98;;;8.30;92.00;;;;;;5061119;28;20041;-41
2021/03/03 08:51:44;;;;;;;36.05;22.20;;;8.30;92.00;;;;;;5063748;28;20054;-38
2021/03/03 08:54:13;;;;;;;32.83;21.05;;;8.30;92.10;;;;;;5064368;28;20353;-39
2021/03/03 08:56:51;;;;;;;32.28;22.38;;;8.20;92.10;;;;;;5064434;28;20107;-39
2021/03/03 08:59:28;;;;;;;33.67;21.25;;;8.30;92.10;;;;;;5064402;28;20420;-38
2021/03/03 09:02:08;;;;;;;31.88;21.10;;;8.30;92.10;;;;;;5063807;28;20047;-40
2021/03/03 09:04:54;;;;;;;31.50;21.77;;;8.30;92.20;;;;;;5064830;28;20371;-38
2021/03/03 09:07:29;;;;;;;35.63;23.90;;;8.30;92.30;;;;;;5064265;28;20090;-40
2021/03/03 09:09:58;;;;;;;31.35;21.75;;;8.30;92.30;;;;;;5064521;28;20464;-41
2021/03/03 09:12:28;;;;;;;35.13;22.15;;;8.30;92.30;;;;;;5064059;28;20036;-40
2021/03/03 09:14:56;;;;;;;33.78;22.35;;;8.40;92.30;;;;;;5064425;28;20044;-39
2021/03/03 09:17:34;;;;;;;33.78;21.60;;;8.50;92.30;;;;;;5061400;28;20174;-39
2021/03/03 09:20:03;;;;;;;33.95;22.88;;;8.50;92.30;;;;;;5065730;28;20013;-41
2021/03/03 09:22:36;;;;;;;36.97;23.00;;;8.60;92.20;;;;;;5067751;28;20419;-39
2021/03/03 09:25:21;;;;;;;36.50;24.17;;;8.70;92.20;;;;;;5068204;28;20025;-37
2021/03/03 09:28:08;;;;;;;34.03;22.58;;;8.80;92.20;;;;;;5067783;28;20181;-39
2021/03/03 09:30:40;;;;;;;34.38;23.23;;;8.90;92.10;;;;;;5067558;28;20135;-40
2021/03/03 09:33:06;;;;;;;34.65;23.20;;;9.00;92.10;;;;;;5067403;28;20017;-40
2021/03/03 09:35:32;;;;;;;36.03;22.95;;;9.00;92.00;;;;;;5067345;28;20024;-39
2021/03/03 09:38:01;;;;;;;30.95;22.58;;;9.10;92.00;;;;;;5067103;28;20027;-37
2021/03/03 09:40:29;;;;;;;33.30;22.52;;;9.10;92.00;;;;;;5067761;28;20081;-40
2021/03/03 09:42:56;;;;;;;34.28;23.73;;;9.20;92.00;;;;;;5067380;28;20576;-40
2021/03/03 09:45:23;;;;;;;32.17;23.88;;;9.20;92.00;;;;;;5066972;28;20044;-39
2021/03/03 09:47:50;;;;;;;36.20;24.17;;;9.20;92.00;;;;;;5066999;28;20029;-40
2021/03/03 09:50:23;;;;;;;32.67;22.75;;;9.20;92.00;;;;;;5066733;28;20028;-40
2021/03/03 09:52:51;;;;;;;37.28;23.00;;;9.30;92.10;;;;;;5064249;28;20052;-40
2021/03/03 09:55:19;;;;;;;34.65;23.98;;;9.30;92.10;;;;;;5067373;28;20028;-38
2021/03/03 09:57:53;;;;;;;36.22;24.25;;;9.30;92.10;;;;;;5066128;28;20486;-42
2021/03/03 10:00:24;;;;;;;39.70;24.27;;;9.40;92.10;;;;;;5064470;28;20032;-38
2021/03/03 10:02:59;;;;;;;32.47;23.25;;;9.40;92.10;;;;;;5067272;28;20113;-38
2021/03/03 10:05:28;;;;;;;31.75;22.88;;;9.40;92.10;;;;;;5063920;28;20028;-40
2021/03/03 10:07:59;;;;;;;37.00;24.70;;;9.50;92.10;;;;;;5066876;28;20024;-40
2021/03/03 10:10:27;;;;;;;38.78;25.40;;;9.50;92.10;;;;;;5066383;28;20024;-39
2021/03/03 10:12:53;;;;;;;35.55;24.60;;;9.50;92.10;;;;;;5066032;28;20031;-40
2021/03/03 10:15:29;;;;;;;36.70;24.88;;;9.60;92.10;;;;;;5066892;28;20029;-37
2021/03/03 10:17:55;;;;;;;32.30;23.92;;;9.70;92.10;;;;;;5067108;28;20169;-38
2021/03/03 10:20:56;;;;;;;32.17;23.85;;;9.70;92.10;;;;;;5066008;28;20924;-37
2021/03/03 10:23:33;;;;;;;37.88;25.38;;;9.80;92.00;;;;;;5064453;28;20032;-38
2021/03/03 10:26:07;;;;;;;35.67;24.33;;;9.90;92.20;;;;;;5066922;28;20348;-41
2021/03/03 10:28:34;;;;;;;34.20;24.92;;;10.00;91.90;;;;;;5066495;28;20159;-40
2021/03/03 10:31:02;;;;;;;40.05;26.45;;;10.10;91.90;;;;;;5066393;28;20036;-34
2021/03/03 10:33:38;;;;;;;35.30;25.40;;;10.20;91.90;;;;;;5066425;28;20365;-40
2021/03/03 10:36:05;;;;;;;41.42;26.98;;;10.30;91.90;;;;;;5065934;28;20387;-40
2021/03/03 10:38:34;;;;;;;39.42;26.77;;;10.50;91.80;;;;;;5066498;28;20028;-38
2021/03/03 10:41:02;;;;;;;38.80;27.65;;;10.70;91.70;;;;;;5065984;28;20047;-39
2021/03/03 10:43:34;;;;;;;39.28;27.90;;;10.80;91.60;;;;;;5066565;28;20050;-40
2021/03/03 10:46:09;;;;;;;43.55;27.73;;;10.90;91.60;;;;;;5064079;28;20050;-40
2021/03/03 10:48:35;;;;;;;42.75;28.92;;;11.10;91.50;;;;;;5045556;28;20029;-40
2021/03/03 10:51:03;;;;;;;41.58;28.75;;;11.20;91.40;;;;;;5061305;28;20166;-40
2021/03/03 10:53:51;;;;;;;41.70;28.38;;;11.30;91.40;;;;;;5065984;28;20041;-40
2021/03/03 10:56:37;;;;;;;38.33;27.58;;;11.40;91.40;;;;;;5065929;28;20821;-37
2021/03/03 10:59:05;;;;;;;41.33;28.92;;;11.50;91.30;;;;;;5046175;28;20032;-34
2021/03/03 11:01:44;;;;;;;39.15;28.75;;;11.60;91.20;;;;;;5061308;28;20029;-42
2021/03/03 11:04:15;;;;;;;40.13;30.17;;;11.80;91.20;;;;;;5045991;28;20090;-40
2021/03/03 11:06:42;;;;;;;42.72;31.00;;;11.90;91.00;;;;;;5061492;28;20174;-38
2021/03/03 11:09:13;;;;;;;46.30;32.60;;;12.10;91.00;;;;;;5065173;28;20107;-39
2021/03/03 11:11:53;;;;;;;41.33;31.27;;;12.10;90.90;;;;;;5065399;28;20119;-39
2021/03/03 11:14:19;;;;;;;46.50;33.10;;;12.20;90.80;;;;;;5065936;28;20118;-40
2021/03/03 11:16:45;;;;;;;46.33;32.63;;;12.20;90.70;;;;;;5065007;28;20021;-40
2021/03/03 11:19:11;;;;;;;46.90;34.10;;;12.30;90.70;;;;;;5065283;28;20028;-40
2021/03/03 11:21:39;;;;;;;42.97;30.00;;;12.30;90.70;;;;;;5065408;28;20062;-40
2021/03/03 11:24:06;;;;;;;47.17;33.35;;;12.30;90.70;;;;;;5059986;28;20029;-42
2021/03/03 11:26:32;;;;;;;48.45;31.83;;;12.30;90.70;;;;;;5064864;28;20032;-40
2021/03/03 11:28:58;;;;;;;46.30;31.58;;;12.30;90.70;;;;;;5065000;28;20024;-42
2021/03/03 11:31:23;;;;;;;50.97;36.17;;;12.30;90.70;;;;;;5064780;28;20456;-40
2021/03/03 11:33:49;;;;;;;53.38;35.33;;;12.30;90.70;;;;;;5064958;28;20087;-38
2021/03/03 11:36:15;;;;;;;50.53;36.08;;;12.30;90.70;;;;;;5064790;28;20028;-50
2021/03/03 11:38:40;;;;;;;51.65;36.83;;;12.30;90.70;;;;;;5064927;28;20051;-38
2021/03/03 11:41:06;;;;;;;52.13;36.28;;;12.30;91.00;;;;;;5065441;28;20631;-39
2021/03/03 11:43:31;;;;;;;56.78;37.53;;;12.30;90.70;;;;;;5064702;28;20044;-40
2021/03/03 11:45:57;;;;;;;58.03;39.63;;;12.40;90.60;;;;;;5065743;28;20020;-39
2021/03/03 11:48:23;;;;;;;51.15;36.78;;;12.40;90.50;;;;;;5054524;28;20033;-39
2021/03/03 11:50:58;;;;;;;54.67;37.67;;;12.50;90.50;;;;;;5064314;28;20051;-39
2021/03/03 11:53:26;;;;;;;58.38;39.72;;;12.50;90.40;;;;;;5064565;28;20086;-39
2021/03/03 11:55:52;;;;;;;61.42;41.80;;;12.60;90.30;;;;;;5065399;28;20085;-37
2021/03/03 11:58:17;;;;;;;63.63;44.88;;;12.70;90.10;;;;;;5064820;28;20142;-40
2021/03/03 12:00:43;;;;;;;60.70;41.72;;;12.70;89.80;;;;;;5065019;28;20532;-39
2021/03/03 12:03:08;;;;;;;66.57;44.25;;;12.80;89.80;;;;;;5064803;28;20547;-40
2021/03/03 12:05:37;;;;;;;64.10;43.83;;;12.80;89.60;;;;;;5064656;28;20037;-39
2021/03/03 12:08:07;;;;;;;65.50;46.40;;;12.90;89.50;;;;;;5064878;28;20092;-40
2021/03/03 12:10:37;;;;;;;65.97;46.50;;;12.90;89.10;;;;;;5065057;28;20028;-39
2021/03/03 12:13:03;;;;;;;65.47;46.13;;;13.00;88.70;;;;;;5061364;28;20136;-40
2021/03/03 12:15:29;;;;;;;67.85;45.17;;;13.00;88.40;;;;;;5062151;28;20742;-40
2021/03/03 12:17:54;;;;;;;65.03;43.50;;;13.10;88.40;;;;;;5064031;28;20120;-44
2021/03/03 12:20:20;;;;;;;70.15;49.17;;;13.10;87.80;;;;;;5064506;28;20537;-40
2021/03/03 12:22:47;;;;;;;68.07;47.35;;;13.10;86.80;;;;;;5064670;28;20021;-39
2021/03/03 12:25:13;;;;;;;76.68;48.85;;;13.20;86.70;;;;;;5064297;28;20036;-39
2021/03/03 12:27:39;;;;;;;61.22;44.90;;;13.20;86.80;;;;;;5064868;28;20484;-36
2021/03/03 12:30:06;;;;;;;71.40;47.75;;;13.20;86.30;;;;;;5064774;28;20024;-39
2021/03/03 12:32:32;;;;;;;65.30;46.03;;;13.20;86.60;;;;;;5064003;28;20040;-38
2021/03/03 12:34:58;;;;;;;60.40;42.47;;;13.20;86.50;;;;;;5064681;28;20020;-39
2021/03/03 12:37:24;;;;;;;62.33;42.58;;;13.20;86.60;;;;;;5065100;28;20025;-38
2021/03/03 12:39:50;;;;;;;63.03;44.33;;;13.30;87.10;;;;;;5064266;28;20025;-40
2021/03/03 12:42:16;;;;;;;63.90;44.92;;;13.30;86.20;;;;;;5064841;28;20029;-41
2021/03/03 12:44:41;;;;;;;61.92;43.03;;;13.40;86.20;;;;;;5064633;28;20039;-40
2021/03/03 12:47:07;;;;;;;55.35;40.10;;;13.40;85.80;;;;;;5064016;28;20021;-39